Time;durP1;ratioP1;P1;durP2;ratioP2;P2;SDS_P1;SDS_P2;PMS_P1;PMS_P2;Temp;Humidity;BMP_temperature;BMP_pressure;BME280_temperature;BME280_humidity;BME280_pressure;Samples;Min_cycle;Max_cycle;Signal;HPM_P1;HPM_P2
2022/09/23 00:01:07;;;;;;;2.83;1.90;;;9.50;99.90;;;;;;5026498;28;20958;-76
2022/09/23 00:03:55;;;;;;;3.10;2.10;;;9.50;99.90;;;;;;5028330;28;20444;-76
2022/09/23 00:06:40;;;;;;;6.63;2.93;;;9.60;99.90;;;;;;5029699;28;20455;-76
2022/09/23 00:09:26;;;;;;;6.30;2.60;;;9.60;99.90;;;;;;5031576;28;20487;-77
2022/09/23 00:12:12;;;;;;;10.90;2.80;;;9.50;99.90;;;;;;5027370;28;20915;-76
2022/09/23 00:14:57;;;;;;;3.67;2.70;;;9.50;99.90;;;;;;5032572;28;20447;-77
2022/09/23 00:17:44;;;;;;;3.70;2.30;;;9.60;99.90;;;;;;5027023;28;20459;-77
2022/09/23 00:20:32;;;;;;;3.87;2.37;;;9.60;99.90;;;;;;5031889;28;20466;-77
2022/09/23 00:23:18;;;;;;;4.00;2.60;;;9.40;99.90;;;;;;5028581;28;20957;-77
2022/09/23 00:26:06;;;;;;;6.03;2.50;;;9.40;99.90;;;;;;5029619;28;20583;-77
2022/09/23 00:28:52;;;;;;;3.37;2.37;;;9.40;99.90;;;;;;5031244;28;20433;-76
2022/09/23 00:31:38;;;;;;;4.17;2.17;;;9.30;99.90;;;;;;5032072;28;20451;-77
2022/09/23 00:34:24;;;;;;;4.20;2.50;;;9.20;99.90;;;;;;5027431;28;20456;-77
2022/09/23 00:37:11;;;;;;;3.60;2.20;;;9.20;99.90;;;;;;5030650;28;20448;-75
2022/09/23 00:39:59;;;;;;;5.87;2.60;;;9.10;99.90;;;;;;5027638;28;20627;-77
2022/09/23 00:42:50;;;;;;;4.20;3.10;;;9.00;99.90;;;;;;5028483;28;20479;-77
2022/09/23 00:45:36;;;;;;;5.13;2.80;;;9.00;99.90;;;;;;5029754;28;20523;-76
2022/09/23 00:48:21;;;;;;;4.57;2.33;;;9.10;99.90;;;;;;5029713;28;21020;-77
2022/09/23 00:51:10;;;;;;;3.70;3.10;;;9.00;99.90;;;;;;5031174;28;20468;-77
2022/09/23 00:53:57;;;;;;;3.10;2.33;;;9.00;99.90;;;;;;5024774;28;20425;-77
2022/09/23 00:56:43;;;;;;;4.10;2.87;;;9.00;99.90;;;;;;5024434;28;20447;-76
2022/09/23 00:59:29;;;;;;;3.20;2.87;;;9.10;99.90;;;;;;5031946;28;20428;-76
2022/09/23 01:02:16;;;;;;;4.20;2.40;;;9.00;99.90;;;;;;5025410;28;20610;-77
2022/09/23 01:05:03;;;;;;;4.10;3.30;;;9.00;99.90;;;;;;5027478;28;20456;-77
2022/09/23 01:07:49;;;;;;;3.73;2.77;;;9.00;99.90;;;;;;5024758;28;20651;-77
2022/09/23 01:10:48;;;;;;;3.93;2.73;;;9.10;99.90;;;;;;5030149;28;20480;-77
2022/09/23 01:13:46;;;;;;;3.17;2.50;;;9.10;99.90;;;;;;5025658;28;20453;-77
2022/09/23 01:16:38;;;;;;;4.33;2.90;;;9.10;99.90;;;;;;5028776;28;20453;-77
2022/09/23 01:19:46;;;;;;;3.70;2.70;;;9.00;99.90;;;;;;5027351;28;20965;-77
2022/09/23 01:22:41;;;;;;;4.80;2.90;;;8.90;99.90;;;;;;5030332;28;20454;-77
2022/09/23 01:25:52;;;;;;;4.27;2.73;;;8.90;99.90;;;;;;5030205;28;20417;-74
2022/09/23 01:29:02;;;;;;;9.37;2.47;;;8.90;99.90;;;;;;5029528;28;20780;-77
2022/09/23 01:31:55;;;;;;;6.37;3.23;;;8.90;99.90;;;;;;5029030;28;21015;-76
2022/09/23 01:34:49;;;;;;;8.40;2.60;;;8.90;99.90;;;;;;5030264;28;20443;-77
2022/09/23 01:37:40;;;;;;;3.77;2.90;;;8.90;99.90;;;;;;5024509;28;20448;-77
2022/09/23 01:40:33;;;;;;;2.80;2.30;;;8.80;99.90;;;;;;5025229;28;20468;-77
2022/09/23 01:43:24;;;;;;;5.30;2.77;;;8.80;99.90;;;;;;5026456;28;20491;-77
2022/09/23 01:46:15;;;;;;;3.07;2.70;;;8.70;99.90;;;;;;5024904;28;20452;-76
2022/09/23 01:49:08;;;;;;;3.90;2.37;;;8.60;99.90;;;;;;5028231;28;20452;-77
2022/09/23 01:51:58;;;;;;;6.63;2.63;;;8.70;99.90;;;;;;5025882;28;20468;-75
2022/09/23 01:54:48;;;;;;;7.97;2.53;;;8.80;99.90;;;;;;5032154;28;20452;-76
2022/09/23 01:57:38;;;;;;;3.70;2.70;;;8.80;99.90;;;;;;5027648;28;20531;-77
2022/09/23 02:00:27;;;;;;;6.90;2.53;;;8.70;99.90;;;;;;5026427;28;20469;-76
2022/09/23 02:03:17;;;;;;;3.73;2.97;;;8.70;99.90;;;;;;5035776;28;20855;-76
2022/09/23 02:06:10;;;;;;;4.70;3.30;;;8.60;99.90;;;;;;5019323;28;20468;-77
2022/09/23 02:09:00;;;;;;;8.23;3.30;;;8.60;99.90;;;;;;5030314;28;20478;-77
2022/09/23 02:11:48;;;;;;;3.37;2.53;;;8.50;99.90;;;;;;5031437;28;20448;-77
2022/09/23 02:14:38;;;;;;;2.70;2.40;;;8.50;99.90;;;;;;5024858;28;20440;-77
2022/09/23 02:17:29;;;;;;;3.53;2.20;;;8.50;99.90;;;;;;5021808;28;20488;-76
2022/09/23 02:20:19;;;;;;;3.50;2.07;;;8.40;99.90;;;;;;5024783;28;20491;-77
2022/09/23 02:23:11;;;;;;;2.90;2.10;;;8.50;99.90;;;;;;5029717;28;20468;-76
2022/09/23 02:26:07;;;;;;;5.00;2.37;;;8.50;99.90;;;;;;5020338;28;20495;-77
2022/09/23 02:29:00;;;;;;;2.90;2.60;;;8.50;99.90;;;;;;5030842;28;20427;-77
2022/09/23 02:31:55;;;;;;;4.30;2.47;;;8.40;99.90;;;;;;5038109;28;20837;-77
2022/09/23 02:34:46;;;;;;;3.23;2.50;;;8.50;99.90;;;;;;5034378;28;20937;-77
2022/09/23 02:37:39;;;;;;;2.80;2.50;;;8.50;99.90;;;;;;5028746;28;20445;-77
2022/09/23 02:40:37;;;;;;;5.13;2.47;;;8.50;99.90;;;;;;5037020;28;20472;-77
2022/09/23 02:43:32;;;;;;;3.27;2.70;;;8.50;99.90;;;;;;5039215;28;21002;-77
2022/09/23 02:46:19;;;;;;;3.10;2.80;;;8.40;99.90;;;;;;5024000;28;20437;-77
2022/09/23 02:49:11;;;;;;;5.40;2.97;;;8.40;99.90;;;;;;5027799;28;20588;-77
2022/09/23 02:52:02;;;;;;;3.77;3.10;;;8.30;99.90;;;;;;5028228;28;20487;-77
2022/09/23 02:54:47;;;;;;;3.77;2.83;;;8.30;99.90;;;;;;5027078;28;20471;-77
2022/09/23 02:57:34;;;;;;;4.63;2.43;;;8.30;99.90;;;;;;5024569;28;20775;-77
2022/09/23 03:00:20;;;;;;;3.47;2.63;;;8.40;99.90;;;;;;5026857;28;20526;-77
2022/09/23 03:03:16;;;;;;;4.50;2.60;;;8.30;99.90;;;;;;5025674;28;21001;-77
2022/09/23 03:06:08;;;;;;;9.00;2.80;;;8.40;99.90;;;;;;5024828;28;20427;-77
2022/09/23 03:08:59;;;;;;;4.40;3.03;;;8.50;99.90;;;;;;5024096;28;20450;-77
2022/09/23 03:11:50;;;;;;;2.80;2.40;;;8.40;99.90;;;;;;5027554;28;20797;-78
2022/09/23 03:14:45;;;;;;;3.07;2.40;;;8.40;99.90;;;;;;5026411;28;20417;-77
2022/09/23 03:17:37;;;;;;;5.10;3.10;;;8.40;99.90;;;;;;5029583;28;20435;-78
2022/09/23 03:20:33;;;;;;;3.50;3.03;;;8.20;99.90;;;;;;5020472;28;20554;-77
2022/09/23 03:23:24;;;;;;;5.20;2.67;;;8.20;99.90;;;;;;5036587;28;20570;-78
2022/09/23 03:26:14;;;;;;;3.77;2.50;;;8.30;99.90;;;;;;5022236;28;21027;-77
2022/09/23 03:29:04;;;;;;;5.00;3.07;;;8.20;99.90;;;;;;5025795;28;20523;-77
2022/09/23 03:31:51;;;;;;;6.80;4.23;;;8.20;99.90;;;;;;5020348;28;20443;-77
2022/09/23 03:34:38;;;;;;;3.80;3.10;;;8.10;99.90;;;;;;5024059;28;20523;-77
2022/09/23 03:37:29;;;;;;;4.40;2.93;;;8.10;99.90;;;;;;5026858;28;20458;-77
2022/09/23 03:40:18;;;;;;;3.43;2.40;;;8.10;99.90;;;;;;5025981;28;20444;-78
2022/09/23 03:43:04;;;;;;;4.23;2.70;;;8.00;99.90;;;;;;5027128;28;20633;-77
2022/09/23 03:45:53;;;;;;;4.10;2.63;;;8.00;99.90;;;;;;5024921;28;20447;-77
2022/09/23 03:48:40;;;;;;;4.80;2.17;;;8.10;99.90;;;;;;5031070;28;20788;-77
2022/09/23 03:51:26;;;;;;;4.10;2.10;;;8.20;99.90;;;;;;5025141;28;20449;-77
2022/09/23 03:54:11;;;;;;;2.77;2.37;;;8.10;99.90;;;;;;5029477;28;20451;-76
2022/09/23 03:56:57;;;;;;;3.73;1.87;;;8.10;99.90;;;;;;5029320;28;20874;-77
2022/09/23 03:59:43;;;;;;;3.20;2.70;;;8.20;99.90;;;;;;5029407;28;20931;-77
2022/09/23 04:02:28;;;;;;;4.67;2.47;;;8.10;99.90;;;;;;5030139;28;20490;-77
2022/09/23 04:05:16;;;;;;;3.27;2.50;;;8.10;99.90;;;;;;5020786;28;20444;-76
2022/09/23 04:08:02;;;;;;;4.60;2.80;;;8.20;99.90;;;;;;5029895;28;20412;-77
2022/09/23 04:10:49;;;;;;;5.60;3.17;;;8.10;99.90;;;;;;5027223;28;20853;-77
2022/09/23 04:13:34;;;;;;;8.43;3.07;;;7.90;99.90;;;;;;5024445;28;20572;-77
2022/09/23 04:16:20;;;;;;;7.40;3.30;;;8.00;99.90;;;;;;5027527;28;20947;-77
2022/09/23 04:19:06;;;;;;;10.60;3.30;;;7.90;99.90;;;;;;5027905;28;20841;-77
2022/09/23 04:21:53;;;;;;;4.33;3.33;;;7.90;99.90;;;;;;5029338;28;20495;-77
2022/09/23 04:24:38;;;;;;;3.87;3.30;;;7.90;99.90;;;;;;5028111;28;20543;-77
2022/09/23 04:27:24;;;;;;;2.80;2.50;;;7.90;99.90;;;;;;5030580;28;20440;-77
2022/09/23 04:30:11;;;;;;;4.57;2.80;;;7.90;99.90;;;;;;5030466;28;20930;-77
2022/09/23 04:32:56;;;;;;;7.53;2.80;;;7.90;99.90;;;;;;5020597;28;20544;-77
2022/09/23 04:35:42;;;;;;;3.80;2.47;;;8.00;99.90;;;;;;5028613;28;20956;-76
2022/09/23 04:38:30;;;;;;;4.77;2.60;;;8.00;99.90;;;;;;5031861;28;20807;-77
2022/09/23 04:41:16;;;;;;;5.77;3.00;;;8.00;99.90;;;;;;5026407;28;20510;-77
2022/09/23 04:44:02;;;;;;;7.13;2.60;;;7.90;99.90;;;;;;5026798;28;21050;-78
2022/09/23 04:46:48;;;;;;;4.20;3.50;;;8.00;99.90;;;;;;5029706;28;20435;-77
2022/09/23 04:49:33;;;;;;;3.10;2.50;;;8.00;99.90;;;;;;5026583;28;20448;-77
2022/09/23 04:52:19;;;;;;;3.40;2.43;;;8.10;99.90;;;;;;5026025;28;20445;-78
2022/09/23 04:55:07;;;;;;;3.20;2.60;;;8.00;99.90;;;;;;5030075;28;20451;-77
2022/09/23 04:57:53;;;;;;;3.03;2.53;;;8.10;99.90;;;;;;5034000;28;20533;-77
2022/09/23 05:00:39;;;;;;;2.17;1.90;;;8.00;99.90;;;;;;5027011;28;20451;-78
2022/09/23 05:03:25;;;;;;;2.97;2.20;;;8.00;99.90;;;;;;5028486;28;20450;-77
2022/09/23 05:06:13;;;;;;;3.10;2.50;;;8.00;99.90;;;;;;5026515;28;20579;-77
2022/09/23 05:08:59;;;;;;;7.03;2.20;;;8.00;99.90;;;;;;5031147;28;20445;-77
2022/09/23 05:11:46;;;;;;;3.13;2.73;;;8.00;99.90;;;;;;5032097;28;20969;-77
2022/09/23 05:14:32;;;;;;;3.70;2.60;;;8.00;99.90;;;;;;5026965;28;20816;-77
2022/09/23 05:17:17;;;;;;;7.67;2.90;;;8.10;99.90;;;;;;5029554;28;20423;-77
2022/09/23 05:20:03;;;;;;;2.93;2.60;;;8.10;99.90;;;;;;5027041;28;20493;-77
2022/09/23 05:22:49;;;;;;;2.83;2.30;;;8.10;99.90;;;;;;5030828;28;20543;-77
2022/09/23 05:25:35;;;;;;;4.67;2.73;;;8.20;99.90;;;;;;5024253;28;20478;-77
2022/09/23 05:28:21;;;;;;;10.73;3.00;;;8.30;99.90;;;;;;5026048;28;20951;-77
2022/09/23 05:31:11;;;;;;;3.20;2.90;;;8.30;99.90;;;;;;5029535;28;20500;-77
2022/09/23 05:33:57;;;;;;;6.10;3.33;;;8.30;99.90;;;;;;5023649;28;20521;-77
2022/09/23 05:36:43;;;;;;;4.40;2.63;;;8.20;99.90;;;;;;5032348;28;20440;-77
2022/09/23 05:39:29;;;;;;;3.67;2.80;;;8.20;99.90;;;;;;5030451;28;20807;-77
2022/09/23 05:42:17;;;;;;;4.70;3.07;;;8.20;99.90;;;;;;5029064;28;20447;-77
2022/09/23 05:45:06;;;;;;;3.90;3.20;;;8.20;99.90;;;;;;5024002;28;20410;-77
2022/09/23 05:47:52;;;;;;;9.50;3.30;;;8.20;99.90;;;;;;5025963;28;21062;-77
2022/09/23 05:50:37;;;;;;;8.67;4.37;;;8.30;99.90;;;;;;5030632;28;20506;-77
2022/09/23 05:53:23;;;;;;;7.20;4.20;;;8.40;99.90;;;;;;5025439;28;20486;-77
2022/09/23 05:56:08;;;;;;;5.60;4.10;;;8.50;99.90;;;;;;5028525;28;20411;-77
2022/09/23 05:58:56;;;;;;;6.47;4.30;;;8.60;99.90;;;;;;5028740;28;20928;-77
2022/09/23 06:01:44;;;;;;;8.10;4.03;;;8.70;99.90;;;;;;5027534;28;20464;-78
2022/09/23 06:04:29;;;;;;;5.90;4.30;;;8.70;99.90;;;;;;5026251;28;20475;-77
2022/09/23 06:07:15;;;;;;;6.30;5.10;;;8.70;99.90;;;;;;5028163;28;20580;-77
2022/09/23 06:10:01;;;;;;;4.33;3.70;;;8.70;99.90;;;;;;5026965;28;20489;-76
2022/09/23 06:12:46;;;;;;;6.57;3.43;;;8.70;99.90;;;;;;5028613;28;20472;-78
2022/09/23 06:15:32;;;;;;;4.63;4.17;;;8.70;99.90;;;;;;5029912;28;20483;-76
2022/09/23 06:18:19;;;;;;;9.03;4.60;;;8.90;99.90;;;;;;5029195;28;20974;-78
2022/09/23 06:21:06;;;;;;;12.07;5.37;;;9.00;99.90;;;;;;5026877;28;20464;-77
2022/09/23 06:23:52;;;;;;;7.03;5.50;;;9.10;99.90;;;;;;5024766;28;20562;-75
2022/09/23 06:26:38;;;;;;;10.00;4.80;;;9.20;99.90;;;;;;5029203;28;20596;-75
2022/09/23 06:29:23;;;;;;;8.13;5.00;;;9.30;99.90;;;;;;5024416;28;20804;-72
2022/09/23 06:32:09;;;;;;;16.37;5.50;;;9.40;99.90;;;;;;5023117;28;20497;-72
2022/09/23 06:34:56;;;;;;;9.60;5.80;;;9.60;99.90;;;;;;5024824;28;20957;-73
2022/09/23 06:37:42;;;;;;;10.00;5.63;;;9.70;99.90;;;;;;5027699;28;20560;-72
2022/09/23 06:40:28;;;;;;;11.47;6.13;;;9.90;99.90;;;;;;5028458;28;20474;-74
2022/09/23 06:43:13;;;;;;;10.30;6.60;;;9.90;99.90;;;;;;5027301;28;20811;-73
2022/09/23 06:46:02;;;;;;;10.40;6.30;;;10.10;99.90;;;;;;5021268;28;20425;-73
2022/09/23 06:48:49;;;;;;;14.40;7.00;;;10.30;99.90;;;;;;5037684;28;20428;-73
2022/09/23 06:51:36;;;;;;;7.67;5.70;;;10.30;99.90;;;;;;5033423;28;20431;-73
2022/09/23 06:54:22;;;;;;;9.10;6.27;;;10.30;99.90;;;;;;5025882;28;20449;-73
2022/09/23 06:57:09;;;;;;;14.70;6.90;;;10.30;99.90;;;;;;5042897;28;20402;-74
2022/09/23 06:59:54;;;;;;;8.03;6.43;;;10.30;99.90;;;;;;5019562;28;20428;-73
2022/09/23 07:02:41;;;;;;;21.00;6.80;;;10.20;99.90;;;;;;5028341;28;23248;-73
2022/09/23 07:05:27;;;;;;;10.83;6.00;;;10.30;99.90;;;;;;5025333;28;20448;-74
2022/09/23 07:08:14;;;;;;;10.00;6.00;;;10.40;99.90;;;;;;5027965;28;20440;-73
2022/09/23 07:11:01;;;;;;;6.73;4.90;;;10.50;99.90;;;;;;5031029;28;21522;-73
2022/09/23 07:13:47;;;;;;;12.10;5.10;;;10.60;99.90;;;;;;5033958;28;20421;-73
2022/09/23 07:16:32;;;;;;;11.93;5.43;;;10.60;99.90;;;;;;5033840;28;20766;-73
2022/09/23 07:19:18;;;;;;;10.13;5.47;;;10.70;99.90;;;;;;5046698;28;20432;-73
2022/09/23 07:22:04;;;;;;;10.70;6.30;;;10.70;99.90;;;;;;5034129;28;20414;-73
2022/09/23 07:24:53;;;;;;;10.73;5.20;;;10.80;99.90;;;;;;5026369;28;20447;-74
2022/09/23 07:27:38;;;;;;;9.13;4.60;;;10.90;99.90;;;;;;5029359;28;20583;-73
2022/09/23 07:30:24;;;;;;;8.80;6.80;;;10.90;99.90;;;;;;5028400;28;20992;-73
2022/09/23 07:33:10;;;;;;;10.73;8.30;;;10.90;99.90;;;;;;5027143;28;20444;-73
2022/09/23 07:35:56;;;;;;;14.60;9.47;;;11.00;99.90;;;;;;5026958;28;20482;-73
2022/09/23 07:38:41;;;;;;;13.40;9.83;;;11.10;99.90;;;;;;5028657;28;20414;-74
2022/09/23 07:41:30;;;;;;;10.67;8.30;;;11.20;99.90;;;;;;5037538;28;20522;-74
2022/09/23 07:44:16;;;;;;;8.70;6.57;;;11.40;99.90;;;;;;5025459;28;20491;-73
2022/09/23 07:47:02;;;;;;;15.57;7.60;;;11.60;99.90;;;;;;5039101;28;20436;-73
2022/09/23 07:49:48;;;;;;;14.17;6.37;;;11.70;99.90;;;;;;5036014;28;20397;-74
2022/09/23 07:52:36;;;;;;;14.73;6.40;;;11.80;99.90;;;;;;5033547;28;20535;-74
2022/09/23 07:55:21;;;;;;;8.57;5.80;;;11.90;99.90;;;;;;5017255;28;20395;-73
2022/09/23 07:58:08;;;;;;;16.07;6.87;;;12.00;99.90;;;;;;5030787;28;20482;-73
2022/09/23 08:00:54;;;;;;;10.10;7.10;;;12.10;99.90;;;;;;5041740;28;20513;-74
2022/09/23 08:03:40;;;;;;;17.70;6.67;;;12.20;99.90;;;;;;5030550;28;20468;-73
2022/09/23 08:06:25;;;;;;;19.97;8.27;;;12.30;99.90;;;;;;5035572;28;20433;-73
2022/09/23 08:09:12;;;;;;;16.73;8.47;;;12.50;99.90;;;;;;5040269;28;20453;-73
2022/09/23 08:11:58;;;;;;;15.93;6.87;;;12.50;99.90;;;;;;5035808;28;20568;-73
2022/09/23 08:14:45;;;;;;;12.90;6.30;;;12.60;99.90;;;;;;5042231;28;21028;-74
2022/09/23 08:17:31;;;;;;;10.97;5.90;;;12.80;99.90;;;;;;5046435;28;20427;-74
2022/09/23 08:23:17;;;;;;;6.57;4.90;;;13.00;99.90;;;;;;5031899;28;20521;-74
2022/09/23 08:26:06;;;;;;;6.57;4.23;;;13.20;99.90;;;;;;5025637;28;20482;-73
2022/09/23 08:28:53;;;;;;;4.90;3.57;;;13.30;99.90;;;;;;5046446;28;20595;-73
2022/09/23 08:31:40;;;;;;;4.50;3.60;;;13.40;99.90;;;;;;5038069;28;20840;-73
2022/09/23 08:34:27;;;;;;;5.77;3.97;;;13.60;99.90;;;;;;5035640;28;20407;-74
2022/09/23 08:37:13;;;;;;;3.80;3.10;;;13.60;99.90;;;;;;5034778;28;20422;-74
2022/09/23 08:39:59;;;;;;;8.23;3.40;;;13.70;99.90;;;;;;5043267;28;20434;-73
2022/09/23 08:42:46;;;;;;;4.60;3.40;;;13.70;99.90;;;;;;5026751;28;20507;-72
2022/09/23 08:45:33;;;;;;;4.10;2.87;;;13.70;99.90;;;;;;5032587;28;20558;-73
2022/09/23 08:48:28;;;;;;;6.57;2.80;;;13.70;99.90;;;;;;5035133;28;20429;-74
2022/09/23 08:51:17;;;;;;;3.87;2.73;;;13.70;99.90;;;;;;5040402;28;21064;-74
2022/09/23 08:54:03;;;;;;;3.90;2.77;;;13.90;99.90;;;;;;5038164;28;20432;-73
2022/09/23 08:56:51;;;;;;;6.33;2.53;;;14.00;99.90;;;;;;5040597;28;20399;-73
2022/09/23 08:59:42;;;;;;;4.63;2.40;;;14.20;99.90;;;;;;5038470;28;20404;-74
2022/09/23 09:02:29;;;;;;;8.13;4.73;;;14.40;99.90;;;;;;5033954;28;20786;-74
2022/09/23 09:05:20;;;;;;;8.80;4.83;;;14.40;99.90;;;;;;5035110;28;20443;-74
2022/09/23 09:08:06;;;;;;;10.80;4.67;;;14.50;99.90;;;;;;5024126;28;20522;-74
2022/09/23 09:10:55;;;;;;;5.17;4.20;;;14.60;99.90;;;;;;5048487;28;20493;-74
2022/09/23 09:13:48;;;;;;;6.63;4.53;;;14.50;99.90;;;;;;5033901;28;20560;-74
2022/09/23 09:16:50;;;;;;;7.00;5.30;;;14.60;99.90;;;;;;5037677;28;20452;-74
2022/09/23 09:19:55;;;;;;;6.00;3.97;;;14.80;99.90;;;;;;5040808;28;20462;-74
2022/09/23 09:22:51;;;;;;;8.90;4.90;;;14.90;99.90;;;;;;5023694;28;20419;-73
2022/09/23 09:25:43;;;;;;;5.63;4.63;;;15.10;99.90;;;;;;5029715;28;20843;-74
2022/09/23 09:28:35;;;;;;;7.30;5.57;;;15.10;99.70;;;;;;5023334;28;20448;-73
2022/09/23 09:31:28;;;;;;;8.93;4.63;;;15.20;98.40;;;;;;5024251;28;20434;-74
2022/09/23 09:34:26;;;;;;;9.20;5.30;;;15.40;99.60;;;;;;5036452;28;21003;-74
2022/09/23 09:37:20;;;;;;;5.70;5.00;;;15.60;99.90;;;;;;5039701;28;20430;-74
2022/09/23 09:40:12;;;;;;;6.97;4.80;;;15.80;99.90;;;;;;5027361;28;20464;-73
2022/09/23 09:42:57;;;;;;;5.27;4.60;;;15.80;94.50;;;;;;5026267;28;20432;-74
2022/09/23 09:46:01;;;;;;;6.27;4.43;;;15.90;92.30;;;;;;5036103;28;20853;-73
2022/09/23 09:48:54;;;;;;;5.60;4.40;;;15.80;92.50;;;;;;5040149;28;20413;-74
2022/09/23 09:51:41;;;;;;;6.97;4.27;;;16.10;92.60;;;;;;5023978;28;20795;-73
2022/09/23 09:54:28;;;;;;;4.70;4.20;;;16.20;91.60;;;;;;5018138;28;20531;-74
2022/09/23 09:57:29;;;;;;;7.90;3.90;;;16.20;83.00;;;;;;5030872;28;20648;-74
2022/09/23 10:00:34;;;;;;;7.43;4.60;;;16.40;91.60;;;;;;5023330;28;20430;-74
2022/09/23 10:03:30;;;;;;;8.90;4.37;;;16.60;87.40;;;;;;5026260;28;20686;-74
2022/09/23 10:06:23;;;;;;;6.03;4.83;;;16.60;80.10;;;;;;5019834;28;20997;-74
2022/09/23 10:09:15;;;;;;;8.40;4.47;;;16.90;81.40;;;;;;5026862;28;20454;-75
2022/09/23 10:12:14;;;;;;;6.27;4.67;;;17.10;82.50;;;;;;5021335;28;20832;-75
2022/09/23 10:15:01;;;;;;;6.93;4.70;;;17.30;80.60;;;;;;5023888;28;20440;-75
2022/09/23 10:17:51;;;;;;;6.80;5.27;;;17.20;69.70;;;;;;5029897;28;20426;-75
2022/09/23 10:20:37;;;;;;;7.27;4.47;;;17.40;75.70;;;;;;5024344;28;20422;-75
2022/09/23 10:23:28;;;;;;;6.87;4.57;;;17.40;73.80;;;;;;5027927;28;20490;-75
2022/09/23 10:26:16;;;;;;;5.83;3.90;;;17.50;70.50;;;;;;5030247;28;20654;-75
2022/09/23 10:29:03;;;;;;;5.40;4.00;;;17.40;59.70;;;;;;5019748;28;20420;-75
2022/09/23 10:31:52;;;;;;;5.73;3.70;;;17.50;65.50;;;;;;5016576;28;20459;-75
2022/09/23 10:34:43;;;;;;;7.40;3.60;;;17.70;64.10;;;;;;5027745;28;20486;-75
2022/09/23 10:37:38;;;;;;;4.57;2.80;;;17.90;63.20;;;;;;5029049;28;20479;-74
2022/09/23 10:47:08;;;;;;;8.90;4.07;;;18.30;51.50;;;;;;5030530;28;20483;-75
2022/09/23 10:50:07;;;;;;;5.40;3.67;;;18.20;49.90;;;;;;5027805;28;20415;-75
2022/09/23 10:53:04;;;;;;;5.30;3.37;;;18.30;51.50;;;;;;5025107;28;20460;-74
2022/09/23 10:56:14;;;;;;;5.90;3.73;;;18.40;51.50;;;;;;5025874;28;20532;-74
2022/09/23 10:59:31;;;;;;;6.70;3.70;;;18.30;48.10;;;;;;5018684;28;20419;-75
2022/09/23 11:02:43;;;;;;;4.57;3.30;;;18.30;51.10;;;;;;5012737;28;20542;-74
2022/09/23 11:05:40;;;;;;;4.53;3.27;;;18.30;50.40;;;;;;5018218;28;20471;-75
2022/09/23 11:08:41;;;;;;;8.43;3.07;;;18.50;51.70;;;;;;5019879;28;20452;-75
2022/09/23 11:11:40;;;;;;;4.67;3.20;;;18.40;51.60;;;;;;5014181;28;21002;-75
2022/09/23 11:14:42;;;;;;;6.70;3.80;;;18.50;51.70;;;;;;5019770;28;20499;-74
2022/09/23 11:17:44;;;;;;;6.07;3.60;;;18.70;49.00;;;;;;5019425;28;20814;-73
2022/09/23 11:20:50;;;;;;;5.90;4.13;;;18.80;52.10;;;;;;5017867;28;20471;-75
2022/09/23 11:24:01;;;;;;;7.27;4.50;;;18.90;43.70;;;;;;5018371;28;20591;-74
2022/09/23 11:26:55;;;;;;;11.60;3.10;;;18.80;44.20;;;;;;5023288;28;20444;-75
2022/09/23 11:30:05;;;;;;;5.37;2.73;;;18.80;44.80;;;;;;5022832;28;20452;-74
2022/09/23 11:33:19;;;;;;;5.73;2.90;;;19.00;45.50;;;;;;5025544;28;20448;-74
2022/09/23 11:36:09;;;;;;;5.60;3.00;;;19.10;45.90;;;;;;5017597;28;20487;-75
2022/09/23 11:38:57;;;;;;;7.47;3.13;;;19.20;43.80;;;;;;5013829;28;20478;-74
2022/09/23 11:41:44;;;;;;;5.83;3.17;;;19.20;44.50;;;;;;5015233;28;20458;-74
2022/09/23 11:44:33;;;;;;;5.37;2.97;;;19.20;43.00;;;;;;5017698;28;20451;-76
2022/09/23 11:47:23;;;;;;;6.00;2.27;;;19.10;40.10;;;;;;5027723;28;20467;-75
2022/09/23 11:50:19;;;;;;;5.63;3.50;;;19.10;42.00;;;;;;5023681;28;20471;-74
2022/09/23 11:53:12;;;;;;;11.20;3.07;;;19.10;41.80;;;;;;5017600;28;20572;-75
2022/09/23 11:56:03;;;;;;;7.80;2.70;;;19.20;43.30;;;;;;5022604;28;20444;-75
2022/09/23 11:58:58;;;;;;;6.33;3.07;;;19.30;43.70;;;;;;5027042;28;20426;-75
2022/09/23 12:01:48;;;;;;;7.33;3.30;;;19.40;41.10;;;;;;5024651;28;20464;-75
2022/09/23 12:04:38;;;;;;;7.93;3.33;;;19.30;40.00;;;;;;5023549;28;20975;-74
2022/09/23 12:07:33;;;;;;;14.57;2.53;;;19.40;38.90;;;;;;5023851;28;21555;-75
2022/09/23 12:10:19;;;;;;;3.83;3.00;;;19.50;44.00;;;;;;5022907;28;20456;-75
2022/09/23 12:13:12;;;;;;;8.33;2.97;;;19.60;42.40;;;;;;5029136;28;20481;-74
2022/09/23 12:16:25;;;;;;;7.67;3.17;;;19.70;39.30;;;;;;5025349;28;20567;-76
2022/09/23 12:19:27;;;;;;;5.80;3.30;;;19.80;43.30;;;;;;5031637;28;20432;-74
2022/09/23 12:22:26;;;;;;;8.10;3.03;;;19.90;41.90;;;;;;5025860;28;20603;-75
2022/09/23 12:25:33;;;;;;;5.60;3.30;;;19.70;40.70;;;;;;5030722;28;20464;-75
2022/09/23 12:28:22;;;;;;;4.87;3.03;;;19.50;39.30;;;;;;5022829;28;20429;-75
2022/09/23 12:31:11;;;;;;;5.47;2.70;;;19.60;41.20;;;;;;5026325;28;20542;-75
2022/09/23 12:33:59;;;;;;;8.40;3.40;;;19.60;39.90;;;;;;5026819;28;20566;-76
2022/09/23 12:36:44;;;;;;;3.77;2.70;;;19.70;40.00;;;;;;5026680;28;20584;-74
2022/09/23 12:39:32;;;;;;;8.00;3.00;;;19.80;40.30;;;;;;5023449;28;20419;-76
2022/09/23 12:42:22;;;;;;;3.43;2.70;;;19.70;39.20;;;;;;5017831;28;20518;-76
2022/09/23 12:45:34;;;;;;;10.03;2.60;;;19.80;42.40;;;;;;5020704;28;20838;-76
2022/09/23 12:48:44;;;;;;;6.90;2.70;;;19.80;41.00;;;;;;5024380;28;20513;-75
2022/09/23 12:51:33;;;;;;;3.60;2.60;;;20.00;43.70;;;;;;5021350;28;20863;-75
2022/09/23 12:54:24;;;;;;;3.80;2.87;;;20.10;45.80;;;;;;5025933;28;21059;-75
2022/09/23 12:57:11;;;;;;;7.93;2.37;;;20.10;43.00;;;;;;5027278;28;21073;-75
2022/09/23 13:00:00;;;;;;;6.07;2.43;;;20.30;40.10;;;;;;5029952;28;20489;-75
2022/09/23 13:09:08;;;;;;;3.43;2.30;;;20.10;39.70;;;;;;5028126;28;20843;-75
2022/09/23 13:11:59;;;;;;;3.63;2.60;;;20.30;39.90;;;;;;5019269;28;20471;-74
2022/09/23 13:14:48;;;;;;;8.43;2.80;;;20.60;40.20;;;;;;5024314;28;20588;-75
2022/09/23 13:17:39;;;;;;;4.13;2.60;;;20.60;35.50;;;;;;5024249;28;20480;-75
2022/09/23 13:20:37;;;;;;;9.07;2.90;;;20.70;36.80;;;;;;5020915;28;20552;-74
2022/09/23 13:23:24;;;;;;;4.90;2.90;;;20.80;33.90;;;;;;5023290;28;20452;-75
2022/09/23 13:26:11;;;;;;;7.23;3.00;;;20.90;34.80;;;;;;5024528;28;20476;-75
2022/09/23 13:28:59;;;;;;;4.47;2.97;;;21.20;36.30;;;;;;5017048;28;20934;-75
2022/09/23 13:31:46;;;;;;;5.20;2.60;;;21.40;34.70;;;;;;5019660;28;21003;-75
2022/09/23 13:34:37;;;;;;;4.60;2.50;;;21.60;36.90;;;;;;5027987;28;20519;-75
2022/09/23 13:37:25;;;;;;;4.43;2.63;;;21.80;33.10;;;;;;5028017;28;20411;-75
2022/09/23 13:40:19;;;;;;;7.40;2.23;;;22.00;33.80;;;;;;5019714;28;20463;-74
2022/09/23 13:43:07;;;;;;;4.50;2.97;;;22.30;33.80;;;;;;5023016;28;20452;-75
2022/09/23 13:45:54;;;;;;;4.63;2.80;;;22.20;31.00;;;;;;5026478;28;20526;-74
2022/09/23 13:48:40;;;;;;;6.20;2.60;;;22.30;31.60;;;;;;5024826;28;20448;-74
2022/09/23 13:51:31;;;;;;;3.23;1.97;;;22.10;29.70;;;;;;5022768;28;20522;-74
2022/09/23 13:54:28;;;;;;;4.77;2.40;;;21.70;31.50;;;;;;5018509;28;20935;-75
2022/09/23 13:57:25;;;;;;;6.87;2.87;;;21.50;33.20;;;;;;5024354;28;20473;-74
2022/09/23 14:00:18;;;;;;;8.33;3.80;;;21.30;33.40;;;;;;5011496;28;21049;-74
2022/09/23 14:03:16;;;;;;;3.83;2.50;;;20.90;33.20;;;;;;5017159;28;20395;-72
2022/09/23 14:06:04;;;;;;;5.70;2.77;;;20.60;35.10;;;;;;5027961;28;20479;-74
2022/09/23 14:08:52;;;;;;;5.70;2.70;;;20.40;36.20;;;;;;5028585;28;20437;-74
2022/09/23 14:11:38;;;;;;;10.60;3.20;;;20.20;38.60;;;;;;5022535;28;20472;-74
2022/09/23 14:14:24;;;;;;;4.17;2.77;;;19.90;38.60;;;;;;5025342;28;20481;-74
2022/09/23 14:17:18;;;;;;;9.33;3.47;;;19.70;39.40;;;;;;5024365;28;20526;-74
2022/09/23 14:20:03;;;;;;;7.17;3.40;;;19.70;39.20;;;;;;5021481;28;20550;-71
2022/09/23 14:23:03;;;;;;;4.83;2.70;;;19.70;43.20;;;;;;5023708;28;20421;-74
2022/09/23 14:25:52;;;;;;;3.07;2.50;;;19.80;44.10;;;;;;5029638;28;20472;-73
2022/09/23 14:28:38;;;;;;;3.93;2.60;;;20.00;44.50;;;;;;5027135;28;20436;-73
2022/09/23 14:31:27;;;;;;;6.50;2.90;;;20.40;42.40;;;;;;5030330;22;20527;-90
2022/09/23 14:34:45;;;;;;;3.37;2.50;;;20.80;43.00;;;;;;5078628;28;20533;-90
2022/09/23 14:40:52;;;;;;;5.13;3.17;;;21.00;37.80;;;;;;5053017;28;20459;-90
2022/09/23 14:43:38;;;;;;;5.10;3.87;;;21.00;37.40;;;;;;5058610;28;20443;-90
2022/09/23 14:46:26;;;;;;;4.10;2.80;;;20.90;35.30;;;;;;5053992;28;20495;-90
2022/09/23 14:49:17;;;;;;;5.80;2.80;;;20.70;38.30;;;;;;5050676;28;20511;-90
2022/09/23 14:52:06;;;;;;;5.00;2.37;;;20.60;41.30;;;;;;5050876;28;20553;-90
2022/09/23 14:54:52;;;;;;;6.10;3.00;;;20.40;45.80;;;;;;5060819;28;20398;-89
2022/09/23 14:57:42;;;;;;;5.23;2.90;;;20.20;45.40;;;;;;5059803;28;20415;-90
2022/09/23 15:00:27;;;;;;;5.43;3.13;;;20.10;47.40;;;;;;5050792;28;21043;-89
2022/09/23 15:03:16;;;;;;;4.63;3.07;;;20.10;54.10;;;;;;5042291;28;20481;-91
2022/09/23 15:06:05;;;;;;;4.27;2.63;;;20.00;57.10;;;;;;5049407;28;20832;-90
2022/09/23 15:08:52;;;;;;;7.53;2.93;;;19.90;53.60;;;;;;5054178;28;20936;-89